sensor_id;sensor_type;location;lat;lon;timestamp;pressure;altitude;pressure_sealevel;temperature;humidity
49813;BME280;35706;52.100;5.056;2022-11-20T00:00:19;101475.03;;;1.72;68.11
49813;BME280;35706;52.100;5.056;2022-11-20T00:01:22;101474.06;;;1.74;67.81
49813;BME280;35706;52.100;5.056;2022-11-20T00:02:23;101472.97;;;1.59;67.33
49813;BME280;35706;52.100;5.056;2022-11-20T00:03:23;101476.44;;;1.58;67.66
49813;BME280;35706;52.100;5.056;2022-11-20T00:04:23;101468.03;;;1.53;68.14
49813;BME280;35706;52.100;5.056;2022-11-20T00:05:24;101476.38;;;1.60;68.07
49813;BME280;35706;52.100;5.056;2022-11-20T00:06:26;101477.22;;;1.60;67.31
49813;BME280;35706;52.100;5.056;2022-11-20T00:07:27;101473.53;;;1.66;67.32
49813;BME280;35706;52.100;5.056;2022-11-20T00:08:27;101468.94;;;1.73;66.72
49813;BME280;35706;52.100;5.056;2022-11-20T00:09:27;101475.50;;;1.81;67.61
49813;BME280;35706;52.100;5.056;2022-11-20T00:10:27;101477.38;;;1.78;67.41
49813;BME280;35706;52.100;5.056;2022-11-20T00:11:29;101470.91;;;1.46;66.11
49813;BME280;35706;52.100;5.056;2022-11-20T00:12:30;101474.72;;;1.37;67.12
49813;BME280;35706;52.100;5.056;2022-11-20T00:13:30;101480.69;;;1.39;67.02
49813;BME280;35706;52.100;5.056;2022-11-20T00:14:31;101477.84;;;1.45;67.13
49813;BME280;35706;52.100;5.056;2022-11-20T00:15:31;101479.84;;;1.38;66.53
49813;BME280;35706;52.100;5.056;2022-11-20T00:16:32;101477.25;;;1.38;66.90
49813;BME280;35706;52.100;5.056;2022-11-20T00:17:33;101474.41;;;1.45;67.58
49813;BME280;35706;52.100;5.056;2022-11-20T00:18:33;101473.06;;;1.56;67.50
49813;BME280;35706;52.100;5.056;2022-11-20T00:19:34;101467.19;;;1.53;67.11
49813;BME280;35706;52.100;5.056;2022-11-20T00:20:34;101477.13;;;1.63;67.64
49813;BME280;35706;52.100;5.056;2022-11-20T00:21:34;101468.75;;;1.57;67.34
49813;BME280;35706;52.100;5.056;2022-11-20T00:22:34;101465.38;;;1.55;67.51
49813;BME280;35706;52.100;5.056;2022-11-20T00:23:35;101468.75;;;1.57;67.95
49813;BME280;35706;52.100;5.056;2022-11-20T00:24:35;101462.41;;;1.64;68.14
49813;BME280;35706;52.100;5.056;2022-11-20T00:25:35;101459.94;;;1.61;68.67
49813;BME280;35706;52.100;5.056;2022-11-20T00:26:36;101458.31;;;1.58;67.57
49813;BME280;35706;52.100;5.056;2022-11-20T00:27:36;101456.56;;;1.59;67.75
49813;BME280;35706;52.100;5.056;2022-11-20T00:28:37;101447.03;;;1.59;67.96
49813;BME280;35706;52.100;5.056;2022-11-20T00:29:37;101452.53;;;1.52;67.06
49813;BME280;35706;52.100;5.056;2022-11-20T00:30:37;101447.28;;;1.53;68.57
49813;BME280;35706;52.100;5.056;2022-11-20T00:31:37;101454.91;;;1.36;68.33
49813;BME280;35706;52.100;5.056;2022-11-20T00:32:38;101449.59;;;1.39;67.84
49813;BME280;35706;52.100;5.056;2022-11-20T00:33:38;101453.81;;;1.41;67.95
49813;BME280;35706;52.100;5.056;2022-11-20T00:34:39;101442.91;;;1.33;67.74
49813;BME280;35706;52.100;5.056;2022-11-20T00:35:39;101445.09;;;1.44;67.75
49813;BME280;35706;52.100;5.056;2022-11-20T00:36:39;101446.13;;;1.40;68.22
49813;BME280;35706;52.100;5.056;2022-11-20T00:37:39;101442.56;;;1.42;68.51
49813;BME280;35706;52.100;5.056;2022-11-20T00:38:40;101447.69;;;1.44;68.21
49813;BME280;35706;52.100;5.056;2022-11-20T00:39:40;101438.78;;;1.50;67.80
49813;BME280;35706;52.100;5.056;2022-11-20T00:40:40;101439.03;;;1.43;68.28
49813;BME280;35706;52.100;5.056;2022-11-20T00:41:41;101447.69;;;1.22;68.29
49813;BME280;35706;52.100;5.056;2022-11-20T00:42:41;101450.22;;;1.01;68.18
49813;BME280;35706;52.100;5.056;2022-11-20T00:43:42;101447.38;;;1.08;68.92
49813;BME280;35706;52.100;5.056;2022-11-20T00:44:42;101448.38;;;1.27;68.47
49813;BME280;35706;52.100;5.056;2022-11-20T00:45:43;101440.31;;;1.33;68.49
49813;BME280;35706;52.100;5.056;2022-11-20T00:46:43;101448.53;;;1.45;69.08
49813;BME280;35706;52.100;5.056;2022-11-20T00:47:43;101444.31;;;1.42;68.81
49813;BME280;35706;52.100;5.056;2022-11-20T00:48:44;101446.91;;;1.42;68.15
49813;BME280;35706;52.100;5.056;2022-11-20T00:49:44;101448.56;;;1.43;68.28
49813;BME280;35706;52.100;5.056;2022-11-20T00:50:45;101442.59;;;1.41;69.30
49813;BME280;35706;52.100;5.056;2022-11-20T00:51:45;101439.78;;;1.47;68.90
49813;BME280;35706;52.100;5.056;2022-11-20T00:52:45;101438.25;;;1.41;68.32
49813;BME280;35706;52.100;5.056;2022-11-20T00:53:46;101438.09;;;1.46;68.51
49813;BME280;35706;52.100;5.056;2022-11-20T00:54:46;101433.94;;;1.42;68.38
49813;BME280;35706;52.100;5.056;2022-11-20T00:55:57;101438.69;;;1.53;68.24
49813;BME280;35706;52.100;5.056;2022-11-20T00:56:58;101434.28;;;1.55;68.35
49813;BME280;35706;52.100;5.056;2022-11-20T00:57:58;101436.78;;;1.56;68.53
49813;BME280;35706;52.100;5.056;2022-11-20T00:59:00;101443.63;;;1.59;68.90
49813;BME280;35706;52.100;5.056;2022-11-20T01:00:00;101442.75;;;1.58;69.30
49813;BME280;35706;52.100;5.056;2022-11-20T01:01:16;101443.41;;;1.63;69.46
49813;BME280;35706;52.100;5.056;2022-11-20T01:02:16;101447.16;;;1.56;69.28
49813;BME280;35706;52.100;5.056;2022-11-20T01:03:18;101438.69;;;1.53;69.46
49813;BME280;35706;52.100;5.056;2022-11-20T01:04:18;101444.75;;;1.52;69.80
49813;BME280;35706;52.100;5.056;2022-11-20T01:05:19;101445.16;;;1.42;70.75
49813;BME280;35706;52.100;5.056;2022-11-20T01:06:21;101444.03;;;1.48;70.45
49813;BME280;35706;52.100;5.056;2022-11-20T01:07:22;101439.78;;;1.47;70.13
49813;BME280;35706;52.100;5.056;2022-11-20T01:08:22;101444.16;;;1.45;70.13
49813;BME280;35706;52.100;5.056;2022-11-20T01:09:22;101444.03;;;1.48;70.97
49813;BME280;35706;52.100;5.056;2022-11-20T01:10:22;101443.94;;;1.51;71.05
49813;BME280;35706;52.100;5.056;2022-11-20T01:11:28;101444.16;;;1.45;70.27
49813;BME280;35706;52.100;5.056;2022-11-20T01:12:29;101440.69;;;1.46;71.27
49813;BME280;35706;52.100;5.056;2022-11-20T01:13:30;101443.28;;;1.46;71.06
49813;BME280;35706;52.100;5.056;2022-11-20T01:14:37;101440.03;;;1.41;71.01
49813;BME280;35706;52.100;5.056;2022-11-20T01:15:37;101449.59;;;1.39;70.92
49813;BME280;35706;52.100;5.056;2022-11-20T01:16:43;101443.53;;;1.40;71.49
49813;BME280;35706;52.100;5.056;2022-11-20T01:17:43;101443.69;;;1.35;72.67
49813;BME280;35706;52.100;5.056;2022-11-20T01:18:46;101442.03;;;1.34;72.38
49813;BME280;35706;52.100;5.056;2022-11-20T01:19:49;101445.63;;;1.30;72.21
49813;BME280;35706;52.100;5.056;2022-11-20T01:20:49;101445.63;;;1.30;72.88
49813;BME280;35706;52.100;5.056;2022-11-20T01:21:52;101451.53;;;1.34;72.38
49813;BME280;35706;52.100;5.056;2022-11-20T01:22:53;101432.69;;;1.30;71.98
49813;BME280;35706;52.100;5.056;2022-11-20T01:23:53;101442.84;;;1.35;71.39
49813;BME280;35706;52.100;5.056;2022-11-20T01:24:53;101444.81;;;1.30;72.79
49813;BME280;35706;52.100;5.056;2022-11-20T01:25:54;101438.94;;;1.25;72.81
49813;BME280;35706;52.100;5.056;2022-11-20T01:26:54;101428.53;;;1.26;72.69
49813;BME280;35706;52.100;5.056;2022-11-20T01:27:54;101435.47;;;1.26;73.38
49813;BME280;35706;52.100;5.056;2022-11-20T01:28:56;101432.88;;;1.26;74.18
49813;BME280;35706;52.100;5.056;2022-11-20T01:29:56;101437.22;;;1.25;73.75
49813;BME280;35706;52.100;5.056;2022-11-20T01:30:57;101440.41;;;1.32;73.37
49813;BME280;35706;52.100;5.056;2022-11-20T01:31:58;101434.38;;;1.31;73.52
49813;BME280;35706;52.100;5.056;2022-11-20T01:32:58;101436.50;;;1.21;72.87
49813;BME280;35706;52.100;5.056;2022-11-20T01:34:01;101434.69;;;1.24;71.31
49813;BME280;35706;52.100;5.056;2022-11-20T01:35:02;101432.03;;;1.25;71.20
49813;BME280;35706;52.100;5.056;2022-11-20T01:36:04;101433.72;;;1.26;70.99
49813;BME280;35706;52.100;5.056;2022-11-20T01:37:05;101435.72;;;1.19;71.29
49813;BME280;35706;52.100;5.056;2022-11-20T01:38:05;101433.19;;;1.18;71.69
49813;BME280;35706;52.100;5.056;2022-11-20T01:39:10;101436.13;;;1.09;71.62
49813;BME280;35706;52.100;5.056;2022-11-20T01:40:11;101437.09;;;1.06;71.72
49813;BME280;35706;52.100;5.056;2022-11-20T01:41:13;101432.63;;;1.10;71.43
49813;BME280;35706;52.100;5.056;2022-11-20T01:42:33;101440.72;;;1.02;71.94
49813;BME280;35706;52.100;5.056;2022-11-20T01:43:54;101440.88;;;0.75;72.05
49813;BME280;35706;52.100;5.056;2022-11-20T01:44:57;101442.25;;;0.62;72.44
49813;BME280;35706;52.100;5.056;2022-11-20T01:45:59;101442.69;;;0.73;72.89
49813;BME280;35706;52.100;5.056;2022-11-20T01:47:05;101440.41;;;0.88;72.51
49813;BME280;35706;52.100;5.056;2022-11-20T01:48:07;101440.81;;;0.99;72.57
49813;BME280;35706;52.100;5.056;2022-11-20T01:49:11;101434.56;;;1.05;71.95
49813;BME280;35706;52.100;5.056;2022-11-20T01:50:17;101430.03;;;1.10;72.49
49813;BME280;35706;52.100;5.056;2022-11-20T01:51:27;101432.28;;;0.97;72.50
49813;BME280;35706;52.100;5.056;2022-11-20T01:53:56;101434.63;;;1.03;73.29
49813;BME280;35706;52.100;5.056;2022-11-20T01:55:04;101430.22;;;1.05;72.29
49813;BME280;35706;52.100;5.056;2022-11-20T01:56:08;101433.59;;;1.07;72.84
49813;BME280;35706;52.100;5.056;2022-11-20T01:57:10;101425.28;;;0.99;72.91
49813;BME280;35706;52.100;5.056;2022-11-20T01:58:12;101427.19;;;0.95;73.36
49813;BME280;35706;52.100;5.056;2022-11-20T01:59:15;101424.63;;;0.94;72.59
49813;BME280;35706;52.100;5.056;2022-11-20T02:00:19;101419.81;;;0.85;73.33
49813;BME280;35706;52.100;5.056;2022-11-20T02:01:20;101410.97;;;0.90;72.86
49813;BME280;35706;52.100;5.056;2022-11-20T02:02:21;101415.25;;;0.91;72.77
49813;BME280;35706;52.100;5.056;2022-11-20T02:03:22;101412.34;;;0.99;72.25
49813;BME280;35706;52.100;5.056;2022-11-20T02:04:23;101411.31;;;1.03;72.25
49813;BME280;35706;52.100;5.056;2022-11-20T02:06:52;101402.53;;;1.07;72.15
49813;BME280;35706;52.100;5.056;2022-11-20T02:07:57;101406.50;;;1.16;72.37
49813;BME280;35706;52.100;5.056;2022-11-20T02:08:57;101405.03;;;1.10;71.28
49813;BME280;35706;52.100;5.056;2022-11-20T02:09:58;101409.28;;;1.11;71.55
49813;BME280;35706;52.100;5.056;2022-11-20T02:10:58;101405.13;;;1.07;71.76
49813;BME280;35706;52.100;5.056;2022-11-20T02:11:58;101409.75;;;0.99;71.76
49813;BME280;35706;52.100;5.056;2022-11-20T02:12:59;101406.88;;;1.07;72.14
49813;BME280;35706;52.100;5.056;2022-11-20T02:14:18;101403.69;;;1.00;71.80
49813;BME280;35706;52.100;5.056;2022-11-20T02:15:18;101403.50;;;1.05;71.61
49813;BME280;35706;52.100;5.056;2022-11-20T02:17:27;101400.63;;;1.12;72.31
49813;BME280;35706;52.100;5.056;2022-11-20T02:18:28;101398.69;;;1.17;72.40
49813;BME280;35706;52.100;5.056;2022-11-20T02:19:31;101406.63;;;1.13;71.99
49813;BME280;35706;52.100;5.056;2022-11-20T02:20:31;101401.09;;;1.00;71.14
49813;BME280;35706;52.100;5.056;2022-11-20T02:24:19;101418.53;;;0.95;71.04
49813;BME280;35706;52.100;5.056;2022-11-20T02:25:21;101415.41;;;0.87;71.00
49813;BME280;35706;52.100;5.056;2022-11-20T02:26:24;101419.41;;;0.95;71.33
49813;BME280;35706;52.100;5.056;2022-11-20T02:27:26;101417.47;;;1.00;72.17
49813;BME280;35706;52.100;5.056;2022-11-20T02:28:27;101414.94;;;0.99;71.24
49813;BME280;35706;52.100;5.056;2022-11-20T02:30:46;101422.00;;;0.95;71.79
49813;BME280;35706;52.100;5.056;2022-11-20T02:31:46;101417.13;;;0.88;71.40
49813;BME280;35706;52.100;5.056;2022-11-20T02:32:47;101417.13;;;0.88;71.51
49813;BME280;35706;52.100;5.056;2022-11-20T02:33:47;101418.13;;;0.84;71.56
49813;BME280;35706;52.100;5.056;2022-11-20T02:34:47;101418.03;;;0.63;71.34
49813;BME280;35706;52.100;5.056;2022-11-20T02:35:48;101423.38;;;0.36;72.98
49813;BME280;35706;52.100;5.056;2022-11-20T02:36:49;101423.84;;;0.23;73.75
49813;BME280;35706;52.100;5.056;2022-11-20T02:37:54;101421.97;;;0.28;74.56
49813;BME280;35706;52.100;5.056;2022-11-20T02:38:55;101421.72;;;0.34;74.89
49813;BME280;35706;52.100;5.056;2022-11-20T02:39:55;101426.34;;;0.49;74.92
49813;BME280;35706;52.100;5.056;2022-11-20T02:40:56;101415.03;;;0.52;74.50
49813;BME280;35706;52.100;5.056;2022-11-20T02:41:56;101426.59;;;0.18;74.71
49813;BME280;35706;52.100;5.056;2022-11-20T02:42:57;101425.88;;;0.14;75.25
49813;BME280;35706;52.100;5.056;2022-11-20T02:43:57;101415.66;;;0.35;75.54
49813;BME280;35706;52.100;5.056;2022-11-20T02:44:57;101416.97;;;0.47;75.13
49813;BME280;35706;52.100;5.056;2022-11-20T02:45:58;101413.00;;;0.60;74.86
49813;BME280;35706;52.100;5.056;2022-11-20T02:46:58;101411.94;;;0.66;74.51
49813;BME280;35706;52.100;5.056;2022-11-20T02:47:59;101406.81;;;0.64;74.87
49813;BME280;35706;52.100;5.056;2022-11-20T02:49:01;101403.50;;;0.60;74.91
49813;BME280;35706;52.100;5.056;2022-11-20T02:50:03;101402.53;;;0.63;75.27
49813;BME280;35706;52.100;5.056;2022-11-20T02:51:04;101408.28;;;0.70;74.41
49813;BME280;35706;52.100;5.056;2022-11-20T02:52:04;101406.13;;;0.59;75.24
49813;BME280;35706;52.100;5.056;2022-11-20T02:53:05;101402.69;;;0.58;74.75
49813;BME280;35706;52.100;5.056;2022-11-20T02:54:05;101403.94;;;0.48;74.86
49813;BME280;35706;52.100;5.056;2022-11-20T02:55:06;101406.84;;;0.40;75.80
49813;BME280;35706;52.100;5.056;2022-11-20T02:56:07;101412.94;;;0.38;75.58
49813;BME280;35706;52.100;5.056;2022-11-20T02:57:07;101405.81;;;0.45;75.81
49813;BME280;35706;52.100;5.056;2022-11-20T02:58:07;101401.88;;;0.34;74.70
49813;BME280;35706;52.100;5.056;2022-11-20T02:59:08;101394.78;;;0.39;75.62
49813;BME280;35706;52.100;5.056;2022-11-20T03:00:08;101396.09;;;0.51;74.58
49813;BME280;35706;52.100;5.056;2022-11-20T03:01:09;101391.00;;;0.48;74.12
49813;BME280;35706;52.100;5.056;2022-11-20T03:02:09;101398.59;;;0.53;73.93
49813;BME280;35706;52.100;5.056;2022-11-20T03:03:09;101410.34;;;0.38;74.18
49813;BME280;35706;52.100;5.056;2022-11-20T03:04:10;101403.28;;;0.19;74.96
49813;BME280;35706;52.100;5.056;2022-11-20T03:05:10;101404.69;;;0.05;75.38
49813;BME280;35706;52.100;5.056;2022-11-20T03:06:11;101406.28;;;0.09;76.03
49813;BME280;35706;52.100;5.056;2022-11-20T03:07:11;101404.47;;;0.11;75.52
49813;BME280;35706;52.100;5.056;2022-11-20T03:08:11;101400.63;;;-0.03;75.42
49813;BME280;35706;52.100;5.056;2022-11-20T03:09:12;101412.41;;;-0.44;75.65
49813;BME280;35706;52.100;5.056;2022-11-20T03:10:12;101420.88;;;-0.94;77.36
49813;BME280;35706;52.100;5.056;2022-11-20T03:11:12;101412.84;;;-1.11;78.03
49813;BME280;35706;52.100;5.056;2022-11-20T03:12:13;101415.31;;;-1.08;78.37
49813;BME280;35706;52.100;5.056;2022-11-20T03:13:13;101402.03;;;-0.69;77.51
49813;BME280;35706;52.100;5.056;2022-11-20T03:14:14;101409.19;;;-0.77;77.89
49813;BME280;35706;52.100;5.056;2022-11-20T03:15:14;101406.91;;;-0.87;78.06
49813;BME280;35706;52.100;5.056;2022-11-20T03:16:20;101406.59;;;-0.77;77.37
49813;BME280;35706;52.100;5.056;2022-11-20T03:17:20;101410.59;;;-0.95;78.41
49813;BME280;35706;52.100;5.056;2022-11-20T03:18:20;101404.66;;;-1.26;78.64
49813;BME280;35706;52.100;5.056;2022-11-20T03:19:21;101405.13;;;-1.13;78.60
49813;BME280;35706;52.100;5.056;2022-11-20T03:20:22;101410.25;;;-1.11;78.82
49813;BME280;35706;52.100;5.056;2022-11-20T03:21:22;101397.06;;;-1.02;78.59
49813;BME280;35706;52.100;5.056;2022-11-20T03:22:23;101404.50;;;-1.21;78.58
49813;BME280;35706;52.100;5.056;2022-11-20T03:23:23;101399.97;;;-1.41;79.43
49813;BME280;35706;52.100;5.056;2022-11-20T03:24:23;101405.38;;;-1.20;79.27
49813;BME280;35706;52.100;5.056;2022-11-20T03:25:24;101399.88;;;-1.38;79.34
49813;BME280;35706;52.100;5.056;2022-11-20T03:26:25;101397.91;;;-1.30;79.64
49813;BME280;35706;52.100;5.056;2022-11-20T03:27:26;101399.94;;;-1.39;79.46
49813;BME280;35706;52.100;5.056;2022-11-20T03:28:26;101395.78;;;-1.17;79.44
49813;BME280;35706;52.100;5.056;2022-11-20T03:29:27;101396.66;;;-0.90;78.52
49813;BME280;35706;52.100;5.056;2022-11-20T03:30:27;101398.03;;;-0.78;77.97
49813;BME280;35706;52.100;5.056;2022-11-20T03:31:36;101390.41;;;-0.56;77.30
49813;BME280;35706;52.100;5.056;2022-11-20T03:32:37;101383.84;;;-0.39;76.67
49813;BME280;35706;52.100;5.056;2022-11-20T03:33:38;101382.25;;;-0.18;76.92
49813;BME280;35706;52.100;5.056;2022-11-20T03:34:39;101382.88;;;-0.12;76.74
49813;BME280;35706;52.100;5.056;2022-11-20T03:35:39;101375.53;;;-0.24;75.79
49813;BME280;35706;52.100;5.056;2022-11-20T03:36:41;101378.91;;;-0.47;76.14
49813;BME280;35706;52.100;5.056;2022-11-20T03:37:42;101372.88;;;-0.46;76.63
49813;BME280;35706;52.100;5.056;2022-11-20T03:38:42;101371.72;;;-0.37;76.02
49813;BME280;35706;52.100;5.056;2022-11-20T03:39:42;101362.03;;;-0.32;76.42
49813;BME280;35706;52.100;5.056;2022-11-20T03:40:43;101366.16;;;-0.27;76.34
49813;BME280;35706;52.100;5.056;2022-11-20T03:41:43;101365.22;;;-0.24;75.76
49813;BME280;35706;52.100;5.056;2022-11-20T03:42:43;101359.72;;;-0.15;75.55
49813;BME280;35706;52.100;5.056;2022-11-20T03:43:50;101362.53;;;-0.21;75.12
49813;BME280;35706;52.100;5.056;2022-11-20T03:44:51;101361.38;;;-0.12;75.76
49813;BME280;35706;52.100;5.056;2022-11-20T03:45:51;101361.44;;;-0.15;75.71
49813;BME280;35706;52.100;5.056;2022-11-20T03:46:51;101359.63;;;-0.12;75.88
49813;BME280;35706;52.100;5.056;2022-11-20T03:47:52;101358.69;;;-0.11;75.71
49813;BME280;35706;52.100;5.056;2022-11-20T03:48:52;101363.94;;;-0.12;75.00
49813;BME280;35706;52.100;5.056;2022-11-20T03:49:53;101363.31;;;-0.19;74.95
49813;BME280;35706;52.100;5.056;2022-11-20T03:51:10;101366.50;;;-0.36;75.45
49813;BME280;35706;52.100;5.056;2022-11-20T03:52:10;101359.16;;;-0.73;76.45
49813;BME280;35706;52.100;5.056;2022-11-20T03:53:10;101366.28;;;-0.55;77.07
49813;BME280;35706;52.100;5.056;2022-11-20T03:54:11;101364.41;;;-0.26;76.10
49813;BME280;35706;52.100;5.056;2022-11-20T03:55:11;101363.06;;;-0.13;75.72
49813;BME280;35706;52.100;5.056;2022-11-20T03:56:13;101362.94;;;-0.08;75.73
49813;BME280;35706;52.100;5.056;2022-11-20T03:57:14;101364.72;;;-0.10;75.52
49813;BME280;35706;52.100;5.056;2022-11-20T03:58:14;101358.25;;;0.02;75.47
49813;BME280;35706;52.100;5.056;2022-11-20T03:59:14;101359.00;;;0.05;75.60
49813;BME280;35706;52.100;5.056;2022-11-20T04:00:15;101348.44;;;0.11;75.71
49813;BME280;35706;52.100;5.056;2022-11-20T04:01:22;101354.34;;;0.15;75.66
49813;BME280;35706;52.100;5.056;2022-11-20T04:02:22;101346.47;;;0.18;74.34
49813;BME280;35706;52.100;5.056;2022-11-20T04:03:23;101342.97;;;0.19;74.90
49813;BME280;35706;52.100;5.056;2022-11-20T04:04:23;101351.41;;;0.24;75.35
49813;BME280;35706;52.100;5.056;2022-11-20T04:05:23;101350.81;;;0.17;74.93
49813;BME280;35706;52.100;5.056;2022-11-20T04:06:26;101345.69;;;0.16;74.88
49813;BME280;35706;52.100;5.056;2022-11-20T04:07:26;101346.47;;;0.18;75.17
49813;BME280;35706;52.100;5.056;2022-11-20T04:08:28;101346.47;;;0.18;74.92
49813;BME280;35706;52.100;5.056;2022-11-20T04:09:28;101341.44;;;0.15;75.16
49813;BME280;35706;52.100;5.056;2022-11-20T04:10:28;101347.66;;;0.09;74.98
49813;BME280;35706;52.100;5.056;2022-11-20T04:11:31;101353.00;;;0.05;75.14
49813;BME280;35706;52.100;5.056;2022-11-20T04:12:32;101349.09;;;0.16;75.81
49813;BME280;35706;52.100;5.056;2022-11-20T04:13:33;101348.06;;;-0.02;75.34
49813;BME280;35706;52.100;5.056;2022-11-20T04:14:33;101349.50;;;0.06;75.35
49813;BME280;35706;52.100;5.056;2022-11-20T04:15:33;101349.84;;;-0.04;75.40
49813;BME280;35706;52.100;5.056;2022-11-20T04:16:35;101335.00;;;0.02;74.83
49813;BME280;35706;52.100;5.056;2022-11-20T04:17:36;101340.25;;;0.00;74.96
49813;BME280;35706;52.100;5.056;2022-11-20T04:18:36;101334.22;;;-0.01;74.74
49813;BME280;35706;52.100;5.056;2022-11-20T04:19:36;101339.81;;;-0.13;74.84
49813;BME280;35706;52.100;5.056;2022-11-20T04:20:37;101328.22;;;-0.01;74.69
49813;BME280;35706;52.100;5.056;2022-11-20T04:21:37;101327.97;;;0.05;74.59
49813;BME280;35706;52.100;5.056;2022-11-20T04:22:37;101314.94;;;0.08;74.32
49813;BME280;35706;52.100;5.056;2022-11-20T04:23:38;101332.63;;;-0.05;74.34
49813;BME280;35706;52.100;5.056;2022-11-20T04:24:38;101317.81;;;0.01;74.72
49813;BME280;35706;52.100;5.056;2022-11-20T04:25:38;101322.78;;;0.07;74.09
49813;BME280;35706;52.100;5.056;2022-11-20T04:26:39;101324.50;;;0.06;75.01
49813;BME280;35706;52.100;5.056;2022-11-20T04:27:40;101320.78;;;0.13;74.44
49813;BME280;35706;52.100;5.056;2022-11-20T04:28:40;101320.88;;;0.10;75.34
49813;BME280;35706;52.100;5.056;2022-11-20T04:29:41;101313.94;;;0.12;74.91
49813;BME280;35706;52.100;5.056;2022-11-20T04:30:42;101320.75;;;0.15;74.53
49813;BME280;35706;52.100;5.056;2022-11-20T04:31:42;101321.50;;;0.17;74.20
49813;BME280;35706;52.100;5.056;2022-11-20T04:32:42;101320.88;;;0.10;73.67
49813;BME280;35706;52.100;5.056;2022-11-20T04:33:43;101319.09;;;0.12;74.39
49813;BME280;35706;52.100;5.056;2022-11-20T04:34:43;101324.94;;;0.17;74.11
49813;BME280;35706;52.100;5.056;2022-11-20T04:35:45;101325.13;;;0.13;74.71
49813;BME280;35706;52.100;5.056;2022-11-20T04:36:47;101323.06;;;0.21;74.30
49813;BME280;35706;52.100;5.056;2022-11-20T04:37:47;101319.59;;;0.22;74.15
49813;BME280;35706;52.100;5.056;2022-11-20T04:38:55;101326.44;;;0.23;74.41
49813;BME280;35706;52.100;5.056;2022-11-20T04:39:56;101327.72;;;0.13;74.81
49813;BME280;35706;52.100;5.056;2022-11-20T04:40:58;101331.19;;;0.12;74.67
49813;BME280;35706;52.100;5.056;2022-11-20T04:41:58;101333.72;;;0.13;74.67
49813;BME280;35706;52.100;5.056;2022-11-20T04:43:17;101325.34;;;0.07;75.04
49813;BME280;35706;52.100;5.056;2022-11-20T04:44:17;101328.38;;;-0.06;75.98
49813;BME280;35706;52.100;5.056;2022-11-20T04:45:18;101329.28;;;-0.07;75.28
49813;BME280;35706;52.100;5.056;2022-11-20T04:46:19;101320.63;;;-0.06;75.32
49813;BME280;35706;52.100;5.056;2022-11-20T04:47:20;101327.66;;;-0.09;75.48
49813;BME280;35706;52.100;5.056;2022-11-20T04:48:21;101322.22;;;-0.02;75.57
49813;BME280;35706;52.100;5.056;2022-11-20T04:49:21;101312.44;;;0.07;75.40
49813;BME280;35706;52.100;5.056;2022-11-20T04:50:21;101313.88;;;0.14;75.29
49813;BME280;35706;52.100;5.056;2022-11-20T04:51:22;101309.66;;;0.11;75.14
49813;BME280;35706;52.100;5.056;2022-11-20T04:52:22;101311.28;;;0.14;75.88
49813;BME280;35706;52.100;5.056;2022-11-20T04:53:23;101303.53;;;0.14;76.13
49813;BME280;35706;52.100;5.056;2022-11-20T04:54:23;101301.88;;;0.13;76.60
49813;BME280;35706;52.100;5.056;2022-11-20T04:55:24;101311.34;;;0.12;76.47
49813;BME280;35706;52.100;5.056;2022-11-20T04:56:24;101302.88;;;0.09;75.83
49813;BME280;35706;52.100;5.056;2022-11-20T04:57:24;101296.75;;;0.11;76.08
49813;BME280;35706;52.100;5.056;2022-11-20T04:58:25;101294.09;;;0.13;76.60
49813;BME280;35706;52.100;5.056;2022-11-20T04:59:25;101293.25;;;0.12;76.46
49813;BME280;35706;52.100;5.056;2022-11-20T05:00:25;101295.72;;;0.15;75.96
49813;BME280;35706;52.100;5.056;2022-11-20T05:01:25;101305.16;;;0.16;76.02
49813;BME280;35706;52.100;5.056;2022-11-20T05:02:26;101299.38;;;0.10;75.88
49813;BME280;35706;52.100;5.056;2022-11-20T05:03:26;101297.63;;;0.10;76.25
49813;BME280;35706;52.100;5.056;2022-11-20T05:04:26;101301.97;;;0.10;75.93
49813;BME280;35706;52.100;5.056;2022-11-20T05:05:26;101293.19;;;0.14;75.79
49813;BME280;35706;52.100;5.056;2022-11-20T05:06:27;101294.38;;;0.05;76.01
49813;BME280;35706;52.100;5.056;2022-11-20T05:07:27;101302.88;;;0.09;75.51
49813;BME280;35706;52.100;5.056;2022-11-20T05:08:28;101299.72;;;0.01;75.30
49813;BME280;35706;52.100;5.056;2022-11-20T05:09:29;101295.00;;;-0.12;76.02
49813;BME280;35706;52.100;5.056;2022-11-20T05:10:30;101303.16;;;-0.23;75.63
49813;BME280;35706;52.100;5.056;2022-11-20T05:11:31;101296.31;;;0.00;75.34
49813;BME280;35706;52.100;5.056;2022-11-20T05:12:32;101292.31;;;-0.09;75.51
49813;BME280;35706;52.100;5.056;2022-11-20T05:13:32;101290.09;;;0.04;75.33
49813;BME280;35706;52.100;5.056;2022-11-20T05:14:33;101285.66;;;0.08;75.03
49813;BME280;35706;52.100;5.056;2022-11-20T05:15:33;101284.31;;;-0.03;75.28
49813;BME280;35706;52.100;5.056;2022-11-20T05:16:34;101293.41;;;0.08;74.97
49813;BME280;35706;52.100;5.056;2022-11-20T05:17:34;101287.38;;;0.09;75.04
49813;BME280;35706;52.100;5.056;2022-11-20T05:18:35;101287.38;;;0.09;75.16
49813;BME280;35706;52.100;5.056;2022-11-20T05:19:35;101283.50;;;-0.03;75.26
49813;BME280;35706;52.100;5.056;2022-11-20T05:20:36;101287.59;;;0.03;75.82
49813;BME280;35706;52.100;5.056;2022-11-20T05:21:36;101277.69;;;0.14;75.49
49813;BME280;35706;52.100;5.056;2022-11-20T05:22:36;101279.44;;;0.13;75.81
49813;BME280;35706;52.100;5.056;2022-11-20T05:23:37;101280.72;;;0.02;76.33
49813;BME280;35706;52.100;5.056;2022-11-20T05:24:37;101272.78;;;0.06;76.36
49813;BME280;35706;52.100;5.056;2022-11-20T05:25:37;101277.97;;;0.06;76.07
49813;BME280;35706;52.100;5.056;2022-11-20T05:26:38;101280.03;;;-0.02;75.89
49813;BME280;35706;52.100;5.056;2022-11-20T05:27:38;101284.09;;;0.04;75.72
49813;BME280;35706;52.100;5.056;2022-11-20T05:28:39;101281.81;;;-0.04;75.91
49813;BME280;35706;52.100;5.056;2022-11-20T05:29:39;101288.47;;;0.02;75.61
49813;BME280;35706;52.100;5.056;2022-11-20T05:30:39;101286.91;;;-0.03;76.00
49813;BME280;35706;52.100;5.056;2022-11-20T05:31:40;101288.56;;;0.00;75.21